createdAt,value
2022-08-21T00:00:25.926Z,101414.34
2022-08-21T00:03:27.617Z,101417.13
2022-08-21T00:06:29.224Z,101411.88
2022-08-21T00:09:30.817Z,101409.31
2022-08-21T00:12:32.422Z,101406.72
2022-08-21T00:15:36.327Z,101406.13
2022-08-21T00:18:38.234Z,101402.72
2022-08-21T00:21:40.528Z,101396.59
2022-08-21T00:24:45.910Z,101395.09
2022-08-21T00:27:47.760Z,101390.94
2022-08-21T00:30:49.325Z,101389.44
2022-08-21T00:33:50.906Z,101389.66
2022-08-21T00:36:52.528Z,101384.56
2022-08-21T00:39:54.411Z,101386.50
2022-08-21T00:42:56.473Z,101379.63
2022-08-21T00:45:58.987Z,101378.16
2022-08-21T00:49:01.749Z,101382.00
2022-08-21T00:52:06.485Z,101373.44
2022-08-21T00:55:11.283Z,101376.34
2022-08-21T00:58:15.411Z,101377.50
2022-08-21T01:01:20.284Z,101374.06
2022-08-21T01:04:23.405Z,101373.34
2022-08-21T01:07:27.789Z,101373.56
2022-08-21T01:10:30.193Z,101369.28
2022-08-21T01:13:35.141Z,101369.47
2022-08-21T01:16:37.112Z,101372.28
2022-08-21T01:19:38.689Z,101365.31
2022-08-21T01:22:40.373Z,101368.22
2022-08-21T01:25:42.201Z,101377.31
2022-08-21T01:28:53.261Z,101378.50
2022-08-21T01:31:55.369Z,101374.31
2022-08-21T01:34:57.023Z,101375.38
2022-08-21T01:37:58.629Z,101382.78
2022-08-21T01:41:00.266Z,101387.41
2022-08-21T01:44:02.098Z,101385.03
2022-08-21T01:47:07.027Z,101392.22
2022-08-21T01:50:12.486Z,101386.94
2022-08-21T01:53:16.259Z,101381.59
2022-08-21T01:56:18.950Z,101370.06
2022-08-21T01:59:22.563Z,101379.03
2022-08-21T02:02:24.119Z,101375.63
2022-08-21T02:05:25.648Z,101378.50
2022-08-21T02:08:29.024Z,101375.16
2022-08-21T02:11:33.239Z,101372.81
2022-08-21T02:14:34.818Z,101368.53
2022-08-21T02:17:41.049Z,101372.28
2022-08-21T02:20:46.166Z,101374.97
2022-08-21T02:23:48.043Z,101362.66
2022-08-21T02:26:49.646Z,101361.78
2022-08-21T02:29:51.311Z,101361.06
2022-08-21T02:32:53.266Z,101354.00
2022-08-21T02:35:55.845Z,101352.28
2022-08-21T02:38:57.548Z,101350.59
2022-08-21T02:41:59.292Z,101350.59
2022-08-21T02:45:01.440Z,101351.53
2022-08-21T02:48:10.137Z,101347.16
2022-08-21T02:51:15.043Z,101351.66
2022-08-21T02:54:16.622Z,101344.59
2022-08-21T02:57:18.219Z,101336.69
2022-08-21T03:00:21.666Z,101325.22
2022-08-21T03:03:23.727Z,101319.88
2022-08-21T03:06:25.693Z,101320.00
2022-08-21T03:09:27.382Z,101324.28
2022-08-21T03:12:30.096Z,101325.00
2022-08-21T03:15:32.784Z,101319.66
2022-08-21T03:18:35.140Z,101317.00
2022-08-21T03:21:37.647Z,101324.06
2022-08-21T03:24:39.249Z,101327.59
2022-08-21T03:27:45.996Z,101332.81
2022-08-21T03:30:51.997Z,101323.84
2022-08-21T03:33:56.035Z,101323.63
2022-08-21T03:36:57.645Z,101323.53
2022-08-21T03:39:59.361Z,101324.28
2022-08-21T03:43:01.523Z,101324.28
2022-08-21T03:46:05.058Z,101320.00
2022-08-21T03:49:07.500Z,101325.56
2022-08-21T03:52:09.089Z,101321.28
2022-08-21T03:55:10.696Z,101318.72
2022-08-21T03:58:16.938Z,101311.84
2022-08-21T04:01:18.951Z,101315.84
2022-08-21T04:04:20.561Z,101314.44
2022-08-21T04:07:22.109Z,101313.78
2022-08-21T04:10:25.581Z,101316.63
2022-08-21T04:13:29.207Z,101324.88
2022-08-21T04:16:31.877Z,101325.81
2022-08-21T04:19:33.691Z,101324.00
2022-08-21T04:22:35.330Z,101332.75
2022-08-21T04:25:37.111Z,101330.84
2022-08-21T04:28:38.718Z,101333.47
2022-08-21T04:31:40.391Z,101330.78
2022-08-21T04:34:42.021Z,101340.50
2022-08-21T04:37:43.716Z,101340.50
2022-08-21T04:40:45.594Z,101345.84
2022-08-21T04:43:47.612Z,101348.59
2022-08-21T04:46:49.245Z,101345.19
2022-08-21T04:49:51.090Z,101340.78
2022-08-21T04:52:53.508Z,101342.72
2022-08-21T04:55:57.850Z,101344.53
2022-08-21T04:59:04.037Z,101340.03
2022-08-21T05:02:07.763Z,101345.38
2022-08-21T05:05:09.774Z,101346.25
2022-08-21T05:08:15.462Z,101349.66
2022-08-21T05:11:17.105Z,101353.06
2022-08-21T05:14:19.177Z,101352.03
2022-08-21T05:17:20.829Z,101341.16
2022-08-21T05:20:22.425Z,101342.75
2022-08-21T05:23:24.012Z,101345.13
2022-08-21T05:26:25.560Z,101356.34
2022-08-21T05:29:27.264Z,101345.25
2022-08-21T05:32:29.192Z,101344.81
2022-08-21T05:35:32.124Z,101341.72
2022-08-21T05:38:33.754Z,101335.94
2022-08-21T05:41:35.368Z,101343.41
2022-08-21T05:44:37.364Z,101344.81
2022-08-21T05:47:40.538Z,101349.50
2022-08-21T05:50:43.101Z,101345.41
2022-08-21T05:53:45.359Z,101344.78
2022-08-21T05:56:47.001Z,101346.06
2022-08-21T05:59:49.191Z,101350.84
2022-08-21T06:02:51.500Z,101352.03
2022-08-21T06:05:53.846Z,101351.47
2022-08-21T06:08:55.452Z,101351.78
2022-08-21T06:11:57.157Z,101350.34
2022-08-21T06:14:58.713Z,101336.53
2022-08-21T06:18:00.284Z,101346.69
2022-08-21T06:21:01.864Z,101346.97
2022-08-21T06:24:03.759Z,101342.00
2022-08-21T06:27:08.560Z,101352.16
2022-08-21T06:30:11.767Z,101347.06
2022-08-21T06:33:13.449Z,101354.41
2022-08-21T06:36:21.965Z,101354.69
2022-08-21T06:39:25.597Z,101353.16
2022-08-21T06:42:32.482Z,101354.28
2022-08-21T06:45:34.142Z,101351.75
2022-08-21T06:48:35.973Z,101362.63
2022-08-21T06:51:37.557Z,101356.53
2022-08-21T06:54:39.586Z,101347.28
2022-08-21T06:57:41.205Z,101347.69
2022-08-21T07:00:52.179Z,101337.22
2022-08-21T07:03:53.926Z,101336.84
2022-08-21T07:06:55.875Z,101332.03
2022-08-21T07:09:57.589Z,101330.69
2022-08-21T07:13:00.832Z,101330.25
2022-08-21T07:16:04.420Z,101326.44
2022-08-21T07:19:06.138Z,101330.06
2022-08-21T07:22:08.313Z,101337.97
2022-08-21T07:25:10.127Z,101329.84
2022-08-21T07:28:11.867Z,101341.41
2022-08-21T07:31:15.788Z,101345.75
2022-08-21T07:34:17.435Z,101338.59
2022-08-21T07:37:19.026Z,101331.88
2022-08-21T07:40:22.244Z,101330.69
2022-08-21T07:43:24.013Z,101329.75
2022-08-21T07:46:26.586Z,101337.00
2022-08-21T07:49:28.739Z,101337.47
2022-08-21T07:52:31.177Z,101340.09
2022-08-21T07:55:33.564Z,101338.41
2022-08-21T07:58:35.554Z,101335.16
2022-08-21T08:04:38.824Z,101346.88
2022-08-21T08:07:52.694Z,101350.44
2022-08-21T08:10:57.348Z,101349.47
2022-08-21T08:14:00.466Z,101351.56
2022-08-21T08:17:03.385Z,101349.47
2022-08-21T08:20:06.572Z,101349.72
2022-08-21T08:23:11.881Z,101346.50
2022-08-21T08:26:13.658Z,101344.06
2022-08-21T08:29:15.508Z,101344.63
2022-08-21T08:32:17.190Z,101348.75
2022-08-21T08:35:19.048Z,101344.75
2022-08-21T08:38:26.678Z,101356.81
2022-08-21T08:41:30.685Z,101348.44
2022-08-21T08:44:32.727Z,101351.69
2022-08-21T08:47:38.634Z,101337.09
2022-08-21T08:50:53.428Z,101354.56
2022-08-21T08:54:05.436Z,101360.66
2022-08-21T08:57:15.341Z,101348.72
2022-08-21T09:00:20.558Z,101344.59
2022-08-21T09:03:24.031Z,101343.34
2022-08-21T09:06:54.968Z,101341.06
2022-08-21T09:10:06.940Z,101345.00
2022-08-21T09:13:42.244Z,101340.88
2022-08-21T09:17:11.062Z,101334.91
2022-08-21T09:20:45.980Z,101332.44
2022-08-21T09:23:56.390Z,101326.31
2022-08-21T09:27:07.717Z,101325.69
2022-08-21T09:30:11.144Z,101325.69
2022-08-21T09:33:14.232Z,101324.22
2022-08-21T09:36:31.121Z,101319.53
2022-08-21T09:39:42.584Z,101320.09
2022-08-21T09:42:57.538Z,101318.28
2022-08-21T09:46:24.119Z,101324.91
2022-08-21T09:49:31.988Z,101318.72
2022-08-21T09:52:33.778Z,101312.34
2022-08-21T09:56:07.578Z,101313.50
2022-08-21T09:59:20.037Z,101316.28
2022-08-21T10:02:32.350Z,101321.94
2022-08-21T10:05:34.245Z,101323.06
2022-08-21T10:08:38.612Z,101326.16
2022-08-21T10:11:53.501Z,101325.53
2022-08-21T10:15:13.446Z,101316.72
2022-08-21T10:18:38.044Z,101316.06
2022-08-21T10:21:45.406Z,101314.88
2022-08-21T10:25:02.928Z,101317.78
2022-08-21T10:28:19.190Z,101319.34
2022-08-21T10:31:32.768Z,101313.06
2022-08-21T10:34:53.452Z,101326.13
2022-08-21T10:38:01.248Z,101323.41
2022-08-21T10:41:27.109Z,101311.53
2022-08-21T10:44:38.925Z,101311.22
2022-08-21T10:47:49.425Z,101305.72
2022-08-21T10:50:56.947Z,101309.81
2022-08-21T10:54:28.440Z,101310.31
2022-08-21T10:57:52.166Z,101315.41
2022-08-21T11:00:59.989Z,101307.63
2022-08-21T11:04:14.441Z,101307.44
2022-08-21T11:07:23.639Z,101319.63
2022-08-21T11:10:40.890Z,101312.00
2022-08-21T11:13:59.583Z,101315.25
2022-08-21T11:17:14.191Z,101310.16
2022-08-21T11:20:33.747Z,101321.00
2022-08-21T11:23:39.779Z,101319.75
2022-08-21T11:26:53.399Z,101317.34
2022-08-21T11:29:57.751Z,101318.41
2022-08-21T11:33:02.164Z,101309.69
2022-08-21T11:36:19.323Z,101313.19
2022-08-21T11:39:35.166Z,101307.34
2022-08-21T11:42:51.485Z,101298.19
2022-08-21T11:45:57.621Z,101310.66
2022-08-21T11:49:24.396Z,101307.78
2022-08-21T11:52:48.700Z,101304.69
2022-08-21T11:55:53.137Z,101308.50
2022-08-21T11:58:59.673Z,101310.81
2022-08-21T12:02:01.774Z,101309.38
2022-08-21T12:05:12.907Z,101308.84
2022-08-21T12:08:28.201Z,101301.75
2022-08-21T12:11:31.230Z,101303.97
2022-08-21T12:14:40.285Z,101299.75
2022-08-21T12:18:02.835Z,101295.94
2022-08-21T12:21:29.483Z,101298.47
2022-08-21T12:24:42.996Z,101297.47
2022-08-21T12:28:02.969Z,101300.78
2022-08-21T12:31:04.772Z,101292.31
2022-08-21T12:34:11.200Z,101298.25
2022-08-21T12:37:31.061Z,101299.34
2022-08-21T12:40:47.146Z,101303.56
2022-08-21T12:43:53.921Z,101301.63
2022-08-21T12:46:59.399Z,101298.53
2022-08-21T12:50:13.750Z,101299.34
2022-08-21T12:53:24.969Z,101301.69
2022-08-21T12:56:30.060Z,101296.31
2022-08-21T12:59:32.766Z,101296.31
2022-08-21T13:02:41.077Z,101298.97
2022-08-21T13:05:42.864Z,101279.88
2022-08-21T13:08:47.591Z,101284.78
2022-08-21T13:11:50.299Z,101287.03
2022-08-21T13:14:58.762Z,101284.38
2022-08-21T13:18:05.178Z,101275.44
2022-08-21T13:21:14.836Z,101269.34
2022-08-21T13:27:44.346Z,101274.06
2022-08-21T13:30:49.798Z,101262.91
2022-08-21T13:33:51.813Z,101266.72
2022-08-21T13:37:00.026Z,101269.53
2022-08-21T13:40:01.878Z,101268.75
2022-08-21T13:43:04.014Z,101269.47
2022-08-21T13:46:13.787Z,101266.78
2022-08-21T13:49:19.020Z,101261.59
2022-08-21T13:52:27.406Z,101274.84
2022-08-21T13:55:39.822Z,101278.47
2022-08-21T13:58:47.248Z,101268.50
2022-08-21T14:02:00.278Z,101266.22
2022-08-21T14:05:03.996Z,101275.69
2022-08-21T14:08:13.596Z,101270.88
2022-08-21T14:11:16.191Z,101275.31
2022-08-21T14:14:25.916Z,101272.56
2022-08-21T14:17:37.745Z,101275.09
2022-08-21T14:20:40.475Z,101259.56
2022-08-21T14:23:42.683Z,101267.56
2022-08-21T14:26:55.744Z,101275.69
2022-08-21T14:30:12.333Z,101272.63
2022-08-21T14:33:27.224Z,101277.19
2022-08-21T14:36:28.914Z,101276.09
2022-08-21T14:39:30.513Z,101279.03
2022-08-21T14:42:32.450Z,101284.28
2022-08-21T14:45:34.573Z,101282.19
2022-08-21T14:48:36.261Z,101291.03
2022-08-21T14:51:39.757Z,101289.47
2022-08-21T14:54:55.553Z,101285.97
2022-08-21T14:57:57.747Z,101284.78
2022-08-21T15:01:00.255Z,101273.69
2022-08-21T15:04:03.531Z,101287.84
2022-08-21T15:07:05.597Z,101284.31
2022-08-21T15:10:09.839Z,101283.75
2022-08-21T15:13:11.677Z,101278.41
2022-08-21T15:16:13.772Z,101276.63
2022-08-21T15:19:15.331Z,101272.28
2022-08-21T15:22:20.572Z,101268.41
2022-08-21T15:25:29.848Z,101273.22
2022-08-21T15:28:31.698Z,101269.28
2022-08-21T15:31:34.608Z,101267.47
2022-08-21T15:34:36.200Z,101270.59
2022-08-21T15:37:37.849Z,101271.72
2022-08-21T15:40:47.809Z,101272.56
2022-08-21T15:43:54.339Z,101269.94
2022-08-21T15:46:57.516Z,101262.88
2022-08-21T15:49:59.329Z,101268.41
2022-08-21T15:53:01.001Z,101279.81
2022-08-21T15:56:03.272Z,101277.72
2022-08-21T15:59:07.932Z,101273.78
2022-08-21T16:02:25.689Z,101278.44
2022-08-21T16:05:27.389Z,101280.34
2022-08-21T16:08:29.037Z,101276.31
2022-08-21T16:11:30.735Z,101278.56
2022-08-21T16:14:35.278Z,101290.28
2022-08-21T16:17:39.542Z,101287.56
2022-08-21T16:20:41.459Z,101286.44
2022-08-21T16:23:43.803Z,101296.00
2022-08-21T16:26:45.581Z,101302.84
2022-08-21T16:29:59.378Z,101303.56
2022-08-21T16:33:03.331Z,101312.47
2022-08-21T16:36:07.216Z,101304.38
2022-08-21T16:39:09.003Z,101314.28
2022-08-21T16:42:17.941Z,101311.41
2022-08-21T16:45:24.312Z,101313.69
2022-08-21T16:48:26.262Z,101308.47
2022-08-21T16:51:27.941Z,101311.91
2022-08-21T16:54:31.012Z,101318.06
2022-08-21T16:57:32.655Z,101303.66
2022-08-21T17:00:34.935Z,101310.84
2022-08-21T17:03:42.394Z,101307.31
2022-08-21T17:06:44.205Z,101319.19
2022-08-21T17:09:45.787Z,101316.47
2022-08-21T17:12:55.911Z,101318.34
2022-08-21T17:15:57.904Z,101324.31
2022-08-21T17:18:59.496Z,101329.63
2022-08-21T17:22:01.415Z,101325.72
2022-08-21T17:25:04.090Z,101327.94
2022-08-21T17:28:06.997Z,101340.19
2022-08-21T17:31:10.358Z,101340.19
2022-08-21T17:34:12.886Z,101339.53
2022-08-21T17:37:14.930Z,101345.47
2022-08-21T17:40:17.209Z,101345.31
2022-08-21T17:43:19.166Z,101345.97
2022-08-21T17:46:25.996Z,101350.06
2022-08-21T17:49:28.340Z,101354.16
2022-08-21T17:52:29.926Z,101354.16
2022-08-21T17:55:33.443Z,101362.63
2022-08-21T17:58:35.380Z,101359.03
2022-08-21T18:01:43.052Z,101361.41
2022-08-21T18:04:45.611Z,101366.69
2022-08-21T18:07:47.323Z,101365.66
2022-08-21T18:10:51.355Z,101363.63
2022-08-21T18:13:55.758Z,101364.97
2022-08-21T18:16:57.483Z,101366.31
2022-08-21T18:19:59.695Z,101371.91
2022-08-21T18:23:01.456Z,101367.66
2022-08-21T18:26:03.946Z,101366.81
2022-08-21T18:29:10.105Z,101372.59
2022-08-21T18:32:29.630Z,101369.31
2022-08-21T18:35:33.604Z,101371.88
2022-08-21T18:38:35.808Z,101373.19
2022-08-21T18:41:37.484Z,101375.41
2022-08-21T18:44:40.855Z,101383.88
2022-08-21T18:47:49.192Z,101382.16
2022-08-21T18:50:52.275Z,101378.94
2022-08-21T18:53:55.587Z,101388.06
2022-08-21T18:56:57.925Z,101392.50
2022-08-21T19:00:01.204Z,101395.34
2022-08-21T19:03:06.178Z,101394.50
2022-08-21T19:09:32.731Z,101393.81
2022-08-21T19:12:37.479Z,101398.38
2022-08-21T19:15:43.233Z,101394.00
2022-08-21T19:18:45.032Z,101399.25
2022-08-21T19:21:49.458Z,101402.81
2022-08-21T19:24:51.437Z,101400.09
2022-08-21T19:27:53.484Z,101406.53
2022-08-21T19:31:01.771Z,101398.56
2022-08-21T19:34:11.984Z,101403.13
2022-08-21T19:37:16.293Z,101402.31
2022-08-21T19:40:19.775Z,101402.44
2022-08-21T19:43:24.183Z,101397.34
2022-08-21T19:46:30.975Z,101402.09
2022-08-21T19:49:35.046Z,101403.28
2022-08-21T19:52:36.771Z,101409.19
2022-08-21T19:55:41.983Z,101406.78
2022-08-21T19:58:47.194Z,101410.84
2022-08-21T20:01:51.983Z,101410.50
2022-08-21T20:04:55.106Z,101425.22
2022-08-21T20:07:56.811Z,101418.25
2022-08-21T20:11:02.498Z,101419.59
2022-08-21T20:14:07.896Z,101420.56
2022-08-21T20:17:12.198Z,101419.03
2022-08-21T20:20:13.812Z,101414.59
2022-08-21T20:23:18.405Z,101419.03
2022-08-21T20:26:32.694Z,101417.31
2022-08-21T20:33:00.059Z,101421.19
2022-08-21T20:36:01.834Z,101416.81
2022-08-21T20:39:07.991Z,101420.13
2022-08-21T20:42:13.352Z,101422.66
2022-08-21T20:45:23.360Z,101416.31
2022-08-21T20:48:49.040Z,101423.06
2022-08-21T20:51:52.773Z,101418.66
2022-08-21T20:55:19.424Z,101418.66
2022-08-21T20:58:39.210Z,101418.13
2022-08-21T21:01:42.255Z,101409.47
2022-08-21T21:05:06.420Z,101417.75
2022-08-21T21:08:21.809Z,101406.00
2022-08-21T21:11:33.630Z,101417.00
2022-08-21T21:14:45.108Z,101417.22
2022-08-21T21:18:02.834Z,101425.13
2022-08-21T21:21:17.817Z,101424.91
2022-08-21T21:24:22.328Z,101421.13
2022-08-21T21:27:37.359Z,101412.34
2022-08-21T21:30:46.612Z,101413.34
2022-08-21T21:33:48.846Z,101415.44
2022-08-21T21:37:03.044Z,101418.47
2022-08-21T21:40:45.881Z,101427.34
2022-08-21T21:44:07.909Z,101432.34
2022-08-21T21:47:45.554Z,101439.34
2022-08-21T21:51:11.888Z,101439.25
2022-08-21T21:54:42.905Z,101438.13
2022-08-21T21:58:24.641Z,101442.56
2022-08-21T22:01:43.798Z,101448.09
2022-08-21T22:05:03.406Z,101452.38
2022-08-21T22:08:18.324Z,101460.06
2022-08-21T22:11:31.749Z,101450.69
2022-08-21T22:14:38.620Z,101454.53
2022-08-21T22:17:43.252Z,101457.38
2022-08-21T22:21:10.179Z,101456.53
2022-08-21T22:24:28.635Z,101454.84
2022-08-21T22:27:39.394Z,101458.97
2022-08-21T22:30:46.637Z,101464.91
2022-08-21T22:34:21.521Z,101453.69
2022-08-21T22:37:40.366Z,101451.31
2022-08-21T22:40:42.103Z,101448.75
2022-08-21T22:44:01.761Z,101449.44
2022-08-21T22:47:03.748Z,101444.28
2022-08-21T22:50:22.083Z,101446.13
2022-08-21T22:53:29.549Z,101449.25
2022-08-21T22:56:40.686Z,101448.72
2022-08-21T23:00:01.356Z,101448.00
2022-08-21T23:03:03.701Z,101450.81
2022-08-21T23:06:21.675Z,101452.66
2022-08-21T23:09:38.353Z,101454.94
2022-08-21T23:12:43.869Z,101457.06
2022-08-21T23:15:59.207Z,101443.28
2022-08-21T23:19:11.957Z,101444.00
2022-08-21T23:22:40.022Z,101439.16
2022-08-21T23:26:18.843Z,101442.13
2022-08-21T23:29:28.116Z,101448.63
2022-08-21T23:32:57.188Z,101441.84
2022-08-21T23:36:29.701Z,101454.31
2022-08-21T23:39:59.060Z,101449.78
2022-08-21T23:43:26.266Z,101445.25
2022-08-21T23:46:52.630Z,101451.16
2022-08-21T23:50:14.450Z,101445.63
2022-08-21T23:53:50.425Z,101444.59
